Time;durP1;ratioP1;P1;durP2;ratioP2;P2;SDS_P1;SDS_P2;PMS_P1;PMS_P2;Temp;Humidity;BMP_temperature;BMP_pressure;BME280_temperature;BME280_humidity;BME280_pressure;Samples;Min_cycle;Max_cycle;Signal;HPM_P1;HPM_P2
2022/05/23 00:02:24;;;;;;;13.63;7.47;;;8.10;99.90;;;;;;5057209;28;20033;-67
2022/05/23 00:04:50;;;;;;;18.65;6.93;;;8.10;99.90;;;;;;5057183;28;20029;-67
2022/05/23 00:07:25;;;;;;;11.75;6.97;;;8.10;99.90;;;;;;5056738;28;20377;-67
2022/05/23 00:09:51;;;;;;;12.60;7.05;;;8.10;99.90;;;;;;5057754;28;20025;-67
2022/05/23 00:12:17;;;;;;;14.45;6.85;;;8.10;99.90;;;;;;5056879;28;20040;-67
2022/05/23 00:14:43;;;;;;;14.15;6.82;;;8.10;99.90;;;;;;5056792;28;20039;-67
2022/05/23 00:17:11;;;;;;;13.18;6.90;;;8.10;99.90;;;;;;5056893;28;20108;-67
2022/05/23 00:19:37;;;;;;;16.83;6.93;;;8.10;99.90;;;;;;5056691;28;20104;-67
2022/05/23 00:22:02;;;;;;;12.90;6.53;;;8.10;99.90;;;;;;5056582;28;20152;-67
2022/05/23 00:24:28;;;;;;;18.60;6.35;;;8.20;99.90;;;;;;5056598;28;20029;-67
2022/05/23 00:26:55;;;;;;;11.13;6.15;;;8.20;99.90;;;;;;5056565;28;20067;-67
2022/05/23 00:29:21;;;;;;;10.63;6.90;;;8.20;99.90;;;;;;5056544;28;20021;-68
2022/05/23 00:37:17;;;;;;;17.58;7.22;;;8.20;99.90;;;;;;5056654;28;20035;-68
2022/05/23 00:39:42;;;;;;;11.40;7.15;;;8.30;99.90;;;;;;5056509;28;20029;-68
2022/05/23 00:44:56;;;;;;;16.00;8.20;;;8.30;99.90;;;;;;5056774;28;20196;-67
2022/05/23 00:47:25;;;;;;;13.75;7.68;;;8.40;99.90;;;;;;5056343;28;20024;-67
2022/05/23 00:49:51;;;;;;;15.93;8.15;;;8.40;99.90;;;;;;5056139;28;20017;-67
2022/05/23 00:52:46;;;;;;;27.23;10.45;;;8.50;99.90;;;;;;5056040;28;20075;-67
2022/05/23 00:55:23;;;;;;;16.35;8.18;;;8.70;99.90;;;;;;5049333;28;20087;-67
2022/05/23 00:57:53;;;;;;;20.35;8.68;;;8.80;99.90;;;;;;5056122;28;20504;-67
2022/05/23 01:00:19;;;;;;;30.52;10.13;;;8.90;99.90;;;;;;5055938;28;20444;-67
2022/05/23 01:02:51;;;;;;;20.85;9.02;;;9.00;99.90;;;;;;5055940;28;20036;-67
2022/05/23 01:05:18;;;;;;;23.95;8.98;;;9.20;99.90;;;;;;5056126;28;20021;-67
2022/05/23 01:07:43;;;;;;;24.42;8.95;;;9.20;99.90;;;;;;5055102;28;20030;-67
2022/05/23 01:10:10;;;;;;;26.48;9.73;;;9.30;99.90;;;;;;5055747;28;20499;-67
2022/05/23 01:12:36;;;;;;;24.75;9.15;;;9.30;99.90;;;;;;5055681;28;20043;-67
2022/05/23 01:15:03;;;;;;;21.45;9.73;;;9.30;99.90;;;;;;5055856;28;20448;-67
2022/05/23 01:17:29;;;;;;;24.40;8.57;;;9.30;99.90;;;;;;5055862;28;20037;-67
2022/05/23 01:19:55;;;;;;;21.67;9.27;;;9.20;99.90;;;;;;5055809;28;20028;-67
2022/05/23 01:22:49;;;;;;;23.30;10.10;;;9.20;99.90;;;;;;5055487;28;20029;-67
2022/05/23 01:25:34;;;;;;;24.13;9.88;;;9.20;99.90;;;;;;5055813;28;20032;-67
2022/05/23 01:28:00;;;;;;;17.67;8.57;;;9.20;99.90;;;;;;5055323;28;20493;-67
2022/05/23 01:30:27;;;;;;;18.98;8.50;;;9.20;99.90;;;;;;5055424;28;20025;-67
2022/05/23 01:32:52;;;;;;;25.55;8.65;;;9.20;99.90;;;;;;5037843;28;20029;-67
2022/05/23 01:35:18;;;;;;;20.95;8.35;;;9.20;99.90;;;;;;5055276;28;20033;-67
2022/05/23 01:37:44;;;;;;;18.70;7.80;;;9.10;99.90;;;;;;5055257;28;20120;-67
2022/05/23 01:40:14;;;;;;;14.57;7.88;;;9.10;99.90;;;;;;5055469;28;20025;-67
2022/05/23 01:42:39;;;;;;;22.02;7.35;;;9.00;99.90;;;;;;5055314;28;20044;-67
2022/05/23 01:45:06;;;;;;;14.32;6.90;;;9.00;99.90;;;;;;5055411;28;20033;-67
2022/05/23 01:47:32;;;;;;;11.40;6.65;;;8.90;99.90;;;;;;5054801;28;20393;-67
2022/05/23 01:49:57;;;;;;;9.57;5.47;;;8.90;99.90;;;;;;5054957;28;20040;-69
2022/05/23 01:52:23;;;;;;;15.18;6.50;;;8.80;99.90;;;;;;5054946;28;20104;-68
2022/05/23 01:54:48;;;;;;;14.25;6.45;;;8.70;99.90;;;;;;5055324;28;20048;-68
2022/05/23 01:57:14;;;;;;;14.95;6.60;;;8.70;99.90;;;;;;5054839;28;20029;-68
2022/05/23 02:02:24;;;;;;;15.50;6.90;;;8.50;99.90;;;;;;5054844;28;20031;-68
2022/05/23 02:04:52;;;;;;;14.85;6.93;;;8.40;99.90;;;;;;5054726;28;20100;-68
2022/05/23 02:07:17;;;;;;;11.00;6.03;;;8.40;99.90;;;;;;5054422;28;20108;-68
2022/05/23 02:09:43;;;;;;;10.90;6.60;;;8.30;99.90;;;;;;5055267;28;20624;-68
2022/05/23 02:12:11;;;;;;;13.43;6.60;;;8.30;99.90;;;;;;5054622;28;20108;-68
2022/05/23 02:14:37;;;;;;;16.83;6.40;;;8.20;99.90;;;;;;5054464;28;20078;-68
2022/05/23 02:17:02;;;;;;;12.52;6.53;;;8.20;99.90;;;;;;5054824;28;20124;-68
2022/05/23 02:19:32;;;;;;;12.73;6.28;;;8.10;99.90;;;;;;5053768;28;20068;-68
2022/05/23 02:21:57;;;;;;;11.52;6.15;;;8.10;99.90;;;;;;5055206;28;20496;-68
2022/05/23 02:24:23;;;;;;;8.05;6.35;;;8.00;99.90;;;;;;5054617;28;20097;-68
2022/05/23 02:26:48;;;;;;;12.90;6.80;;;7.90;99.90;;;;;;5054160;28;20017;-68
2022/05/23 02:29:15;;;;;;;18.10;8.00;;;7.80;99.90;;;;;;5054182;28;20051;-68
2022/05/23 02:31:41;;;;;;;14.30;6.70;;;7.80;99.90;;;;;;5054109;28;20021;-68
2022/05/23 02:34:07;;;;;;;12.98;7.88;;;7.70;99.90;;;;;;5054366;28;20111;-68
2022/05/23 02:36:32;;;;;;;9.60;6.20;;;7.70;99.90;;;;;;5054075;28;20025;-68
2022/05/23 02:38:58;;;;;;;15.52;7.10;;;7.70;99.90;;;;;;5036468;28;20063;-68
2022/05/23 02:41:23;;;;;;;10.60;7.18;;;7.70;99.90;;;;;;5053933;28;20528;-68
2022/05/23 02:43:49;;;;;;;13.10;6.35;;;7.70;99.90;;;;;;5053940;28;20025;-68
2022/05/23 02:46:15;;;;;;;13.40;6.60;;;7.70;99.90;;;;;;5054247;28;20021;-68
2022/05/23 02:48:40;;;;;;;9.60;6.47;;;7.70;99.90;;;;;;5053866;28;20025;-68
2022/05/23 02:51:06;;;;;;;19.27;7.20;;;7.60;99.90;;;;;;5054210;28;20029;-68
2022/05/23 02:53:32;;;;;;;36.75;8.93;;;7.60;99.90;;;;;;5053823;28;20032;-68
2022/05/23 02:55:57;;;;;;;17.63;7.82;;;7.70;99.90;;;;;;5053758;28;20371;-68
2022/05/23 02:58:23;;;;;;;10.85;7.40;;;7.70;99.90;;;;;;5053664;28;20039;-68
2022/05/23 03:00:49;;;;;;;15.40;8.15;;;7.80;99.90;;;;;;5053710;28;20051;-68
2022/05/23 03:03:14;;;;;;;13.95;6.95;;;7.80;99.90;;;;;;5053881;28;20029;-68
2022/05/23 03:05:46;;;;;;;11.70;6.55;;;7.80;99.90;;;;;;5053763;28;20096;-68
2022/05/23 03:08:14;;;;;;;16.15;7.38;;;7.80;99.90;;;;;;5053584;28;20037;-68
2022/05/23 03:10:40;;;;;;;14.23;7.05;;;7.80;99.90;;;;;;5053565;28;20021;-68
2022/05/23 03:13:06;;;;;;;11.80;6.55;;;7.80;99.90;;;;;;5053545;28;20435;-68
2022/05/23 03:15:33;;;;;;;10.80;7.25;;;7.80;99.90;;;;;;5053498;28;20108;-68
2022/05/23 03:17:59;;;;;;;16.83;7.53;;;7.70;99.90;;;;;;5053412;28;20107;-68
2022/05/23 03:20:25;;;;;;;12.98;6.53;;;7.80;99.90;;;;;;5053416;28;20122;-68
2022/05/23 03:28:21;;;;;;;11.32;6.22;;;7.90;99.90;;;;;;5053560;28;19915;-68
2022/05/23 03:30:47;;;;;;;17.08;6.40;;;7.90;99.90;;;;;;5053146;28;20090;-68
2022/05/23 03:33:13;;;;;;;12.65;6.38;;;8.00;99.90;;;;;;5053591;28;20427;-68
2022/05/23 03:35:40;;;;;;;10.52;6.30;;;8.00;99.90;;;;;;5053213;28;20047;-68
2022/05/23 03:38:06;;;;;;;12.90;6.18;;;8.10;99.90;;;;;;5053202;28;20021;-68
2022/05/23 03:40:33;;;;;;;10.75;5.55;;;8.20;99.90;;;;;;5054042;28;20368;-68
2022/05/23 03:43:00;;;;;;;14.02;6.35;;;8.30;99.90;;;;;;5053100;28;20072;-68
2022/05/23 03:45:27;;;;;;;12.05;5.57;;;8.30;99.90;;;;;;5053120;28;20380;-68
2022/05/23 03:47:53;;;;;;;11.77;6.05;;;8.40;99.90;;;;;;5053327;28;20104;-68
2022/05/23 03:50:21;;;;;;;11.05;6.07;;;8.50;99.90;;;;;;5053157;28;20486;-68
2022/05/23 03:52:46;;;;;;;13.32;5.72;;;8.60;99.90;;;;;;5053179;28;20108;-68
2022/05/23 03:55:12;;;;;;;18.90;7.53;;;8.70;99.90;;;;;;5053093;28;20052;-68
2022/05/23 03:57:38;;;;;;;10.27;5.60;;;8.80;99.90;;;;;;5053177;28;20124;-68
2022/05/23 04:00:09;;;;;;;12.30;5.30;;;8.90;99.90;;;;;;5052972;28;20029;-68
2022/05/23 04:02:35;;;;;;;9.18;5.30;;;9.00;99.90;;;;;;5053184;28;20029;-68
2022/05/23 04:05:01;;;;;;;14.88;5.82;;;9.10;99.90;;;;;;5053195;28;20025;-68
2022/05/23 04:07:27;;;;;;;9.05;5.55;;;9.20;99.90;;;;;;5053071;28;20497;-68
2022/05/23 04:09:52;;;;;;;13.13;6.28;;;9.30;99.90;;;;;;5053214;28;20112;-68
2022/05/23 04:12:18;;;;;;;10.30;5.28;;;9.30;99.90;;;;;;5052954;28;20028;-68
2022/05/23 04:14:44;;;;;;;17.25;6.38;;;9.40;99.90;;;;;;5052950;28;20120;-68
2022/05/23 04:17:10;;;;;;;7.32;5.30;;;9.40;99.90;;;;;;5052798;28;20022;-68
2022/05/23 04:19:36;;;;;;;14.75;4.93;;;9.50;99.90;;;;;;5052629;28;20033;-68
2022/05/23 04:22:01;;;;;;;11.38;5.28;;;9.60;99.90;;;;;;5052970;28;20139;-68
2022/05/23 04:24:28;;;;;;;16.08;5.18;;;9.60;99.90;;;;;;5053012;28;20048;-68
2022/05/23 04:26:55;;;;;;;9.15;5.68;;;9.60;99.90;;;;;;5052739;28;20096;-68
2022/05/23 04:29:22;;;;;;;7.68;4.60;;;9.70;99.90;;;;;;5051833;28;20044;-68
2022/05/23 04:31:47;;;;;;;19.48;6.03;;;9.70;99.90;;;;;;5053118;28;20033;-68
2022/05/23 04:36:57;;;;;;;17.55;6.35;;;9.80;99.90;;;;;;5053264;28;20409;-68
2022/05/23 04:39:23;;;;;;;9.98;4.43;;;9.80;99.90;;;;;;5052553;28;20025;-68
2022/05/23 04:41:49;;;;;;;11.90;4.57;;;9.90;99.90;;;;;;5053233;28;20071;-68
2022/05/23 04:44:15;;;;;;;14.05;4.97;;;9.90;99.90;;;;;;5057329;28;20025;-68
2022/05/23 04:49:41;;;;;;;25.30;5.78;;;9.90;99.90;;;;;;5057103;28;20455;-68
2022/05/23 04:49:41;;;;;;;7.85;4.50;;;9.90;99.90;;;;;;5056014;28;20120;-68
2022/05/23 04:52:11;;;;;;;14.30;4.70;;;10.00;99.90;;;;;;5056449;28;20024;-68
2022/05/23 04:54:37;;;;;;;18.48;5.35;;;10.00;99.90;;;;;;5056255;28;20055;-68
2022/05/23 04:57:03;;;;;;;9.98;4.93;;;10.00;99.90;;;;;;5056294;28;20059;-68
2022/05/23 04:59:29;;;;;;;10.50;4.95;;;10.00;99.90;;;;;;5055812;28;20051;-68
2022/05/23 05:01:55;;;;;;;14.95;5.03;;;10.00;99.90;;;;;;5056246;28;20034;-68
2022/05/23 05:04:20;;;;;;;25.27;6.10;;;10.10;99.90;;;;;;5056089;28;20020;-68
2022/05/23 05:06:46;;;;;;;12.68;5.13;;;10.10;99.90;;;;;;5056370;28;20488;-68
2022/05/23 05:09:11;;;;;;;8.93;4.90;;;10.20;99.90;;;;;;5055730;28;20047;-68
2022/05/23 05:11:38;;;;;;;10.45;4.38;;;10.30;99.90;;;;;;5055737;28;20032;-68
2022/05/23 05:14:05;;;;;;;7.18;5.18;;;10.30;99.90;;;;;;5055960;28;20227;-68
2022/05/23 05:16:31;;;;;;;9.95;4.97;;;10.40;99.90;;;;;;5055748;28;20024;-68
2022/05/23 05:18:57;;;;;;;9.98;4.88;;;10.40;99.90;;;;;;5055802;28;20037;-68
2022/05/23 05:21:23;;;;;;;7.80;3.85;;;10.50;99.90;;;;;;5055474;28;20023;-68
2022/05/23 05:23:49;;;;;;;8.48;4.40;;;10.50;99.90;;;;;;5055505;28;20024;-68
2022/05/23 05:26:15;;;;;;;9.95;5.15;;;10.60;99.90;;;;;;5055499;28;20021;-68
2022/05/23 05:28:40;;;;;;;10.15;5.22;;;10.70;99.90;;;;;;5055597;28;20385;-68
2022/05/23 05:31:15;;;;;;;16.23;5.05;;;10.80;99.90;;;;;;5055385;28;20106;-68
2022/05/23 05:33:46;;;;;;;10.48;5.50;;;11.00;99.90;;;;;;5055680;28;20366;-68
2022/05/23 05:36:16;;;;;;;15.10;7.05;;;11.20;99.90;;;;;;5055307;28;20082;-68
2022/05/23 05:38:42;;;;;;;6.72;4.85;;;11.40;99.90;;;;;;5055276;28;20473;-68
2022/05/23 05:41:17;;;;;;;10.60;6.13;;;11.60;99.90;;;;;;5055236;28;20040;-68
2022/05/23 05:43:49;;;;;;;15.32;5.05;;;11.80;99.90;;;;;;5055440;28;20060;-68
2022/05/23 05:46:26;;;;;;;15.15;5.47;;;11.90;99.90;;;;;;5055128;28;20021;-68
2022/05/23 05:48:54;;;;;;;12.05;5.40;;;12.20;99.90;;;;;;5055062;28;20442;-67
2022/05/23 05:51:22;;;;;;;6.93;4.00;;;12.30;99.90;;;;;;5055088;28;20021;-67
2022/05/23 05:53:49;;;;;;;8.27;4.32;;;12.50;99.90;;;;;;5054892;28;20017;-67
2022/05/23 05:56:15;;;;;;;7.25;3.45;;;12.70;99.90;;;;;;5054924;28;20473;-67
2022/05/23 05:58:41;;;;;;;7.60;3.67;;;12.80;99.90;;;;;;5055068;28;20044;-68
2022/05/23 06:01:07;;;;;;;9.32;3.13;;;13.00;99.90;;;;;;5054805;28;20118;-68
2022/05/23 06:03:33;;;;;;;12.43;3.33;;;13.20;99.90;;;;;;5054827;28;20473;-68
2022/05/23 06:11:27;;;;;;;;;;;13.90;99.90;;;;;;5055317;28;20106;-67
2022/05/23 06:14:01;;;;;;;6.45;2.13;;;14.10;99.90;;;;;;5054589;28;19930;-67
2022/05/23 06:16:30;;;;;;;7.90;2.30;;;14.30;99.90;;;;;;5054773;28;20041;-67
2022/05/23 06:18:56;;;;;;;9.35;2.25;;;14.50;99.90;;;;;;5054422;28;20492;-67
2022/05/23 06:21:22;;;;;;;7.25;2.55;;;14.70;99.90;;;;;;5054454;28;20029;-67
2022/05/23 06:23:48;;;;;;;14.77;2.45;;;14.90;99.90;;;;;;5054204;28;20035;-67
2022/05/23 06:26:15;;;;;;;9.20;2.25;;;15.10;99.90;;;;;;5054299;28;20017;-67
2022/05/23 06:28:42;;;;;;;11.10;1.85;;;15.30;99.90;;;;;;5054369;28;20021;-67
2022/05/23 06:31:08;;;;;;;7.35;2.10;;;15.30;99.90;;;;;;5054433;28;20125;-67
2022/05/23 06:33:33;;;;;;;5.10;2.20;;;15.60;99.90;;;;;;5054158;28;20096;-67
2022/05/23 06:35:59;;;;;;;9.88;2.38;;;15.70;99.90;;;;;;5054356;28;20360;-67
2022/05/23 06:38:25;;;;;;;8.10;1.98;;;15.90;99.90;;;;;;5054028;28;20071;-67
2022/05/23 06:40:51;;;;;;;9.77;2.00;;;16.00;99.90;;;;;;5054135;28;20067;-67
2022/05/23 06:43:17;;;;;;;10.05;2.05;;;16.10;99.90;;;;;;5053899;28;20381;-67
2022/05/23 06:45:45;;;;;;;8.80;2.25;;;16.30;99.90;;;;;;5054522;28;20040;-66
2022/05/23 06:48:11;;;;;;;8.38;2.50;;;16.40;99.90;;;;;;5054171;28;20385;-67
2022/05/23 06:50:36;;;;;;;6.50;1.85;;;16.60;99.90;;;;;;5053900;28;20024;-67
2022/05/23 06:53:02;;;;;;;6.20;1.63;;;16.60;99.90;;;;;;5054261;28;20427;-67
2022/05/23 06:55:28;;;;;;;6.20;1.70;;;16.70;99.90;;;;;;5053883;28;20021;-67
2022/05/23 06:57:53;;;;;;;3.72;1.33;;;16.80;99.90;;;;;;5054126;28;20056;-66
2022/05/23 07:00:19;;;;;;;8.32;1.70;;;16.90;99.90;;;;;;5053854;28;20033;-66
2022/05/23 07:02:45;;;;;;;5.65;1.50;;;16.90;99.90;;;;;;5053707;28;20079;-66
2022/05/23 07:13:24;;;;;;;3.22;1.40;;;17.60;99.90;;;;;;5054201;28;20003;-67
2022/05/23 07:15:50;;;;;;;6.78;1.60;;;17.70;99.90;;;;;;5053552;28;20053;-66
2022/05/23 07:18:17;;;;;;;9.05;1.65;;;17.80;99.90;;;;;;5053724;28;20430;-66
2022/05/23 07:20:44;;;;;;;6.05;1.65;;;17.90;99.90;;;;;;5053711;28;20386;-66
2022/05/23 07:23:10;;;;;;;5.68;1.50;;;18.20;99.90;;;;;;5053324;28;20017;-66
2022/05/23 07:25:36;;;;;;;5.80;1.38;;;18.20;99.90;;;;;;5053641;28;20100;-66
2022/05/23 07:28:02;;;;;;;3.72;1.73;;;18.20;99.90;;;;;;5053416;28;20052;-66
2022/05/23 07:30:28;;;;;;;8.45;1.77;;;18.20;99.90;;;;;;5053305;28;20060;-66
2022/05/23 07:32:54;;;;;;;6.25;1.40;;;18.30;99.90;;;;;;5053682;28;20028;-67
2022/05/23 07:35:20;;;;;;;5.50;1.40;;;18.50;99.90;;;;;;5053513;28;20388;-66
2022/05/23 07:37:46;;;;;;;8.02;1.40;;;18.50;99.90;;;;;;5053265;28;20032;-66
2022/05/23 07:40:12;;;;;;;7.72;1.65;;;18.70;99.90;;;;;;5053531;28;20033;-66
2022/05/23 07:42:38;;;;;;;8.88;1.55;;;18.80;99.90;;;;;;5053378;28;20393;-66
2022/05/23 07:45:06;;;;;;;9.07;1.65;;;19.00;99.90;;;;;;5053481;28;20025;-66
2022/05/23 07:47:32;;;;;;;3.72;1.40;;;19.00;99.90;;;;;;5035218;28;20033;-66
2022/05/23 07:49:57;;;;;;;8.18;1.70;;;19.30;99.90;;;;;;5053098;28;20390;-67
2022/05/23 07:52:23;;;;;;;3.67;1.25;;;19.40;99.90;;;;;;5053166;28;20037;-67
2022/05/23 08:00:32;;;;;;;4.18;1.10;;;20.00;99.90;;;;;;5053370;28;20401;-67
2022/05/23 08:03:17;;;;;;;11.40;1.58;;;20.10;99.90;;;;;;5053003;28;20112;-67
2022/05/23 08:05:43;;;;;;;5.03;1.50;;;20.30;99.90;;;;;;5053399;28;20032;-67
2022/05/23 08:08:08;;;;;;;6.68;1.60;;;20.40;99.90;;;;;;5052858;28;20037;-67
2022/05/23 08:10:34;;;;;;;4.80;1.52;;;20.40;99.90;;;;;;5053586;28;20029;-67
2022/05/23 08:13:02;;;;;;;5.43;1.23;;;20.50;99.90;;;;;;5053031;28;20021;-67
2022/05/23 08:15:28;;;;;;;2.70;1.00;;;20.50;99.90;;;;;;5052871;28;20524;-67
2022/05/23 08:17:54;;;;;;;8.90;1.10;;;20.80;99.90;;;;;;5055489;28;20107;-67
2022/05/23 08:20:20;;;;;;;4.03;1.45;;;20.90;99.90;;;;;;5039137;28;20017;-67
2022/05/23 08:22:51;;;;;;;9.40;1.50;;;21.10;99.90;;;;;;5056776;28;20028;-67
2022/05/23 08:25:17;;;;;;;11.63;1.58;;;21.20;99.90;;;;;;5056733;28;20543;-68
2022/05/23 08:27:42;;;;;;;7.60;1.50;;;21.40;99.90;;;;;;5056637;28;20087;-67
2022/05/23 08:30:09;;;;;;;8.60;1.77;;;21.50;99.90;;;;;;5056577;28;20060;-67
2022/05/23 08:32:34;;;;;;;6.13;1.25;;;21.60;99.90;;;;;;5056536;28;20036;-69
2022/05/23 08:35:00;;;;;;;7.45;1.70;;;21.60;99.90;;;;;;5056616;28;20036;-68
2022/05/23 08:37:25;;;;;;;4.03;1.17;;;21.70;99.90;;;;;;5056576;28;20036;-68
2022/05/23 08:39:51;;;;;;;2.92;0.90;;;21.70;99.90;;;;;;5056445;28;20025;-68
2022/05/23 08:42:32;;;;;;;8.50;1.80;;;21.60;99.90;;;;;;5056343;28;20104;-68
2022/05/23 08:45:01;;;;;;;4.65;1.20;;;21.60;99.90;;;;;;5056463;28;20083;-68
2022/05/23 08:47:46;;;;;;;10.25;1.40;;;21.60;99.90;;;;;;5056275;28;20368;-68
2022/05/23 08:50:19;;;;;;;5.05;1.00;;;21.80;99.90;;;;;;5056294;28;20039;-68
2022/05/23 08:52:53;;;;;;;;;;;21.90;99.90;;;;;;5056974;28;20062;-68
2022/05/23 08:55:24;;;;;;;6.57;1.60;;;22.00;99.90;;;;;;5056461;28;20284;-68
2022/05/23 08:58:06;;;;;;;5.15;1.20;;;22.10;99.90;;;;;;5056294;28;20029;-68
2022/05/23 09:00:40;;;;;;;8.55;1.60;;;22.20;99.90;;;;;;5056351;28;20477;-68
2022/05/23 09:03:19;;;;;;;20.17;4.45;;;22.20;99.90;;;;;;5056352;28;20051;-68
2022/05/23 09:05:55;;;;;;;5.50;1.25;;;22.40;99.90;;;;;;5056254;28;20021;-68
2022/05/23 09:08:24;;;;;;;11.05;1.95;;;22.40;99.90;;;;;;5055904;28;20032;-68
2022/05/23 09:10:55;;;;;;;10.13;1.52;;;22.30;99.90;;;;;;5055968;28;20083;-68
2022/05/23 09:13:23;;;;;;;4.45;1.40;;;22.30;99.90;;;;;;5056276;28;20028;-68
2022/05/23 09:15:59;;;;;;;5.88;1.90;;;22.00;99.90;;;;;;5055743;28;20025;-68
2022/05/23 09:18:27;;;;;;;9.65;1.50;;;22.10;99.90;;;;;;5055790;28;20045;-68
2022/05/23 09:20:58;;;;;;;8.65;1.92;;;22.10;99.90;;;;;;5055579;28;20385;-68
2022/05/23 09:23:31;;;;;;;9.40;1.80;;;22.20;99.90;;;;;;5055697;28;20083;-68
2022/05/23 09:25:59;;;;;;;5.50;1.48;;;22.30;99.90;;;;;;5055804;28;20021;-68
2022/05/23 09:28:27;;;;;;;13.75;1.67;;;22.60;99.90;;;;;;5055078;28;20028;-68
2022/05/23 09:31:03;;;;;;;6.22;1.50;;;22.70;99.90;;;;;;5055715;28;20030;-68
2022/05/23 09:33:30;;;;;;;9.00;1.38;;;22.70;99.90;;;;;;5055800;28;20033;-68
2022/05/23 09:36:14;;;;;;;5.03;1.50;;;22.90;99.90;;;;;;5055445;28;20444;-68
2022/05/23 09:38:55;;;;;;;8.65;2.03;;;22.90;99.90;;;;;;5055260;28;20028;-68
2022/05/23 09:47:44;;;;;;;10.13;2.20;;;23.10;99.90;;;;;;5055573;28;20035;-68
2022/05/23 09:49:45;;;;;;;11.20;2.40;;;23.20;99.90;;;;;;5055501;28;20113;-68
2022/05/23 09:52:25;;;;;;;10.73;1.80;;;23.40;99.90;;;;;;5055314;28;20029;-68
2022/05/23 09:54:56;;;;;;;8.10;2.08;;;23.40;99.90;;;;;;5055287;28;20028;-68
2022/05/23 09:57:26;;;;;;;12.45;1.92;;;23.40;99.90;;;;;;5055253;28;20049;-68
2022/05/23 10:00:08;;;;;;;6.68;1.55;;;23.40;99.90;;;;;;5055428;28;20096;-68
2022/05/23 10:02:41;;;;;;;8.90;2.42;;;23.70;99.90;;;;;;5054797;28;20028;-68
2022/05/23 10:05:41;;;;;;;5.43;1.40;;;23.70;99.90;;;;;;5055133;28;20032;-69
2022/05/23 10:08:14;;;;;;;10.18;2.25;;;24.00;99.90;;;;;;5054279;28;20505;-69
2022/05/23 10:10:57;;;;;;;;;;;24.40;99.90;;;;;;5055220;28;20033;-69
2022/05/23 10:13:29;;;;;;;5.85;2.15;;;24.50;99.90;;;;;;5054683;28;19905;-69
2022/05/23 10:15:58;;;;;;;9.88;1.77;;;24.60;99.90;;;;;;5054711;28;20029;-69
2022/05/23 10:18:27;;;;;;;4.85;1.70;;;24.60;99.90;;;;;;5054317;28;20059;-70
2022/05/23 10:20:54;;;;;;;5.82;1.92;;;24.80;99.90;;;;;;5054980;28;20108;-70
2022/05/23 10:23:23;;;;;;;4.75;1.63;;;25.30;99.90;;;;;;5054580;28;20021;-70
2022/05/23 10:26:19;;;;;;;8.77;2.38;;;25.00;99.90;;;;;;5054889;28;20021;-70
2022/05/23 10:29:26;;;;;;;6.45;1.85;;;25.20;99.90;;;;;;5054411;28;20036;-70
2022/05/23 10:32:01;;;;;;;6.57;2.13;;;25.10;99.90;;;;;;5054707;28;20040;-70
2022/05/23 10:34:52;;;;;;;4.70;1.50;;;25.20;99.90;;;;;;5054640;28;20098;-71
2022/05/23 10:37:32;;;;;;;8.05;2.13;;;25.30;99.90;;;;;;5054288;28;20017;-70
2022/05/23 10:43:14;;;;;;;7.32;2.53;;;25.40;99.90;;;;;;5054260;28;20028;-70
2022/05/23 10:45:54;;;;;;;10.65;2.13;;;25.30;99.90;;;;;;5054140;28;20020;-70
2022/05/23 10:48:32;;;;;;;10.50;2.75;;;25.30;99.90;;;;;;5054106;28;20443;-70
2022/05/23 10:51:24;;;;;;;12.18;2.00;;;25.50;99.90;;;;;;5054264;28;20052;-70
2022/05/23 10:53:55;;;;;;;6.85;2.33;;;25.50;99.90;;;;;;5054128;28;20048;-70
2022/05/23 10:56:28;;;;;;;8.65;2.30;;;25.70;99.90;;;;;;5054040;28;20028;-70
2022/05/23 10:59:21;;;;;;;8.25;2.20;;;25.70;99.90;;;;;;5054105;28;20021;-71
2022/05/23 11:01:52;;;;;;;6.82;2.10;;;25.90;99.90;;;;;;5054082;28;20032;-71
2022/05/23 11:04:27;;;;;;;5.55;2.20;;;26.20;99.90;;;;;;5053936;28;20029;-70
2022/05/23 11:07:09;;;;;;;12.48;2.55;;;26.20;98.50;;;;;;5054131;28;20032;-70
2022/05/23 11:09:52;;;;;;;9.82;2.47;;;26.30;99.90;;;;;;5054135;28;20029;-71
2022/05/23 11:12:30;;;;;;;12.50;2.33;;;26.20;99.90;;;;;;5053860;28;20432;-71
2022/05/23 11:15:16;;;;;;;10.60;2.20;;;26.40;99.90;;;;;;5054041;28;20460;-71
2022/05/23 11:17:54;;;;;;;14.63;2.60;;;26.40;98.90;;;;;;5053684;28;20017;-70
2022/05/23 11:20:38;;;;;;;7.93;2.45;;;26.30;99.90;;;;;;5035771;28;20032;-70
2022/05/23 11:23:38;;;;;;;11.60;2.70;;;26.40;99.90;;;;;;5053442;28;20040;-70
2022/05/23 11:26:25;;;;;;;9.63;2.22;;;26.50;99.90;;;;;;5035697;28;20051;-70
2022/05/23 11:34:59;;;;;;;15.07;2.70;;;26.60;99.60;;;;;;5053666;28;20495;-70
2022/05/23 11:37:45;;;;;;;5.13;2.30;;;26.70;99.90;;;;;;5035553;28;20029;-70
2022/05/23 11:40:30;;;;;;;5.85;2.20;;;26.70;99.70;;;;;;5053605;28;20021;-70
2022/05/23 11:43:05;;;;;;;11.00;2.00;;;26.60;96.60;;;;;;5053170;28;20393;-70
2022/05/23 11:45:59;;;;;;;6.50;2.13;;;26.60;99.80;;;;;;5053402;28;20028;-70
2022/05/23 11:48:34;;;;;;;9.38;2.15;;;27.10;99.80;;;;;;5053189;28;20013;-70
2022/05/23 11:51:30;;;;;;;5.80;1.88;;;27.20;99.20;;;;;;5054755;28;20104;-70
2022/05/23 11:54:08;;;;;;;7.15;2.50;;;27.20;98.40;;;;;;5058076;28;20029;-70
2022/05/23 11:56:38;;;;;;;12.88;2.60;;;27.30;98.60;;;;;;5057472;28;20025;-70
2022/05/23 11:59:06;;;;;;;10.18;2.05;;;27.60;98.10;;;;;;5057295;28;20025;-70
2022/05/23 12:01:32;;;;;;;9.77;2.58;;;27.40;97.00;;;;;;5057528;28;20021;-70
2022/05/23 12:04:00;;;;;;;9.93;2.92;;;27.50;97.10;;;;;;5057163;28;20036;-70
2022/05/23 12:06:29;;;;;;;7.65;2.28;;;27.60;97.40;;;;;;5057066;28;20075;-71
2022/05/23 12:08:57;;;;;;;8.93;2.38;;;28.00;97.20;;;;;;5057455;28;20464;-71
2022/05/23 12:11:26;;;;;;;8.57;2.00;;;28.60;98.20;;;;;;5057480;28;20021;-71
2022/05/23 12:13:58;;;;;;;16.58;2.42;;;29.10;96.00;;;;;;5057227;28;20052;-71
2022/05/23 12:16:27;;;;;;;8.13;2.13;;;28.70;92.10;;;;;;5057303;28;20380;-71
2022/05/23 12:19:30;;;;;;;6.97;2.63;;;28.30;93.90;;;;;;5057061;28;20473;-71
2022/05/23 12:22:30;;;;;;;10.88;2.20;;;28.40;92.60;;;;;;5057273;28;20025;-71
2022/05/23 12:25:00;;;;;;;6.05;2.00;;;28.20;91.90;;;;;;5057033;28;20025;-70
2022/05/23 12:27:30;;;;;;;7.32;1.63;;;28.20;94.90;;;;;;5056789;28;20377;-71
2022/05/23 12:30:21;;;;;;;8.90;2.58;;;28.60;94.40;;;;;;5056725;28;20025;-71
2022/05/23 12:32:52;;;;;;;9.55;2.22;;;28.90;91.60;;;;;;5057127;28;20513;-71
2022/05/23 12:35:24;;;;;;;7.57;2.30;;;29.10;90.80;;;;;;5056886;28;20115;-71
2022/05/23 12:38:11;;;;;;;7.72;1.83;;;29.20;90.70;;;;;;5056656;28;20066;-70
2022/05/23 12:40:49;;;;;;;7.57;2.42;;;29.20;91.30;;;;;;5056510;28;20036;-70
2022/05/23 12:43:31;;;;;;;5.85;2.22;;;28.50;90.00;;;;;;5056372;28;20451;-70
2022/05/23 12:46:21;;;;;;;5.97;1.90;;;28.80;91.00;;;;;;5056791;28;20021;-70
2022/05/23 12:48:52;;;;;;;17.48;2.15;;;28.90;90.10;;;;;;5057090;28;20028;-69
2022/05/23 12:54:52;;;;;;;15.07;2.50;;;29.10;89.20;;;;;;5057378;28;20033;-69
2022/05/23 12:57:42;;;;;;;8.80;2.03;;;29.10;87.80;;;;;;5055990;28;20061;-69
2022/05/23 13:00:29;;;;;;;9.25;1.95;;;29.50;91.50;;;;;;5056626;28;20032;-69
2022/05/23 13:03:07;;;;;;;7.65;1.80;;;29.60;88.30;;;;;;5055626;28;20082;-69
2022/05/23 13:05:43;;;;;;;8.05;2.42;;;29.60;84.70;;;;;;5056180;28;20027;-69
2022/05/23 13:08:18;;;;;;;6.18;2.17;;;29.20;84.10;;;;;;5055991;28;20040;-68
2022/05/23 13:10:47;;;;;;;8.93;2.00;;;29.60;86.40;;;;;;5056409;28;20025;-69
2022/05/23 13:13:36;;;;;;;6.15;1.90;;;29.20;83.40;;;;;;5056050;28;20025;-69
2022/05/23 13:16:28;;;;;;;7.57;2.10;;;29.50;83.70;;;;;;5056213;28;20028;-69
2022/05/23 13:27:12;;;;;;;8.23;1.92;;;30.50;82.30;;;;;;5056001;28;20055;-69
2022/05/23 13:29:39;;;;;;;3.95;1.73;;;30.50;81.40;;;;;;5055970;28;20029;-69
2022/05/23 13:32:12;;;;;;;6.40;1.40;;;31.00;82.20;;;;;;5055675;28;20389;-69
2022/05/23 13:34:42;;;;;;;10.30;2.13;;;31.00;73.70;;;;;;5056082;28;20033;-69
2022/05/23 13:37:09;;;;;;;10.70;2.03;;;31.30;82.30;;;;;;5055624;28;20021;-69
2022/05/23 13:39:45;;;;;;;4.65;1.83;;;31.50;78.30;;;;;;5055859;28;20021;-69
2022/05/23 13:42:22;;;;;;;6.22;1.50;;;31.40;76.60;;;;;;5055414;28;20048;-69
2022/05/23 13:44:49;;;;;;;4.78;1.45;;;31.40;74.70;;;;;;5055732;28;20462;-69
2022/05/23 13:47:24;;;;;;;12.30;2.10;;;31.30;78.20;;;;;;5055240;28;20024;-69
2022/05/23 13:49:59;;;;;;;6.45;1.38;;;31.40;72.70;;;;;;5055582;28;20021;-69
2022/05/23 13:52:34;;;;;;;10.55;2.10;;;31.00;75.90;;;;;;5055608;28;20033;-69
2022/05/23 13:55:07;;;;;;;5.18;1.58;;;31.20;77.20;;;;;;5055682;28;20120;-69
2022/05/23 13:57:39;;;;;;;3.95;1.48;;;31.10;74.00;;;;;;5055691;28;20033;-68
2022/05/23 14:00:21;;;;;;;8.80;1.98;;;31.00;74.90;;;;;;5055317;28;20025;-69
2022/05/23 14:03:03;;;;;;;5.35;1.45;;;31.20;72.90;;;;;;5055274;28;20359;-69
2022/05/23 14:05:33;;;;;;;11.27;1.80;;;31.20;72.50;;;;;;5055673;28;20028;-69
2022/05/23 14:08:00;;;;;;;6.82;1.80;;;31.50;72.70;;;;;;5054868;28;20029;-69
2022/05/23 14:10:27;;;;;;;4.88;1.35;;;31.40;72.50;;;;;;5055018;28;20102;-69